MMPQ

Details ICAO MMPQ
Name PALENQUE INTL
Region Mexico
Timezone America/Mexico_City (UTC-6.0)
Plans Departing 2
Arriving 5
Stats Elevation 200 ft / 61 m (AMSL)
Location 17.533431° -91.984517°
Runways 1
Magnetic Variation 1.459° E
Sunrise 2017-12-14 12:31:29 UTC / 2017-12-14 06:31:29 Local
Sunset 2017-12-14 23:36:47 UTC / 2017-12-14 17:36:47 Local
Advertisement - Login to hide

Runways

ID Width Length Bearing (true) Bearing (mag) Surface Threshold Offset Overrun Length
09 82 ft / 25 m 4,892 ft / 1,491 m 101.01° 99.55° Asphalt 0 ft / 0 m 0 ft / 0 m
27 82 ft / 25 m 4,892 ft / 1,491 m 281.02° 279.56° Asphalt 0 ft / 0 m 0 ft / 0 m

Map

Weather


0- 5 10 15 20 25 30 35+ Temperature / ° C

Clouds and Precipitation
Forecast for 2017-12-14 18:00 UTC. Updated 8 minutes ago

Ground ~20,000 ft ~40,000 ft Winds

METAR

MMPQ 141147Z 00000KT 2 1/2SM BR SKC 14/13 A2986 RMK RTS

TAF

TAF AMD MMPQ 141201Z 1412/1506 00000KT 2 1/2SM BR SCT010 TEMPO 1412/1415 1SM BR BKN010 FM141600 15008KT 5SM HZ BKN040 BKN250 FM150400 00000KT P6SM BKN030
Warning: Do not use this data for real-world aviation or navigation. No guarantee of current accuracy is given.